Tatsuryo Maru — JK5161 — position and weather

sailwx.info

Track history (hours):
 
Tides and Currents Weather Stations Pressure Air Temp Water Temp Dewpoint Dewpoint Depression Visibility Wind Speed Wind Dir Waves Ship Positions

Tatsuryo Maru

Last reported at 2018-Feb-19 13:59 UTC. Time now 2018-Feb-19 14:20 UTC.
Position N 33°57' E 131°14'.

Length 59 m; draft 3.5 m.

Type: Cargo ship. MMSI: 431400121.

Date/timePositionNaut miles runAvg speedWind from/ knotsBaromVisibWave heightAir tempDewpointWater temp
2018-Feb-19 13:59N 33°57' E 131°14'0 0.0
2018-Feb-19 13:30N 33°57' E 131°14'1 2.0
2018-Feb-19 13:00N 33°56' E 131°13'5 9.4
2018-Feb-19 12:30N 33°55' E 131°08'510.2
2018-Feb-19 12:00N 33°58' E 131°02'4 8.9
2018-Feb-19 11:30N 33°57' E 130°57'4 7.8
2018-Feb-19 11:00N 33°55' E 130°53'510.2
2018-Feb-19 10:30N 33°58' E 130°48'510.4
2018-Feb-19 10:00N 33°58' E 130°42'510.3
2018-Feb-19 09:30N 33°57' E 130°36'510.5
2018-Feb-19 09:00N 33°57' E 130°29'510.5
2018-Feb-19 08:30N 33°55' E 130°23'510.3
2018-Feb-19 08:00N 33°53' E 130°18'510.6
2018-Feb-19 07:30N 33°50' E 130°12'510.6
2018-Feb-19 07:00N 33°47' E 130°07'510.9
2018-Feb-19 06:30N 33°44' E 130°02'10 0.4
2018-Feb-18 04:59N 33°38' E 129°52'611.1
2018-Feb-18 04:24N 33°42' E 129°58'410.9
2018-Feb-18 04:00N 33°44' E 130°03'611.3
2018-Feb-18 03:30N 33°47' E 130°08'611.2
2018-Feb-18 03:00N 33°51' E 130°14'611.4
2018-Feb-18 02:30N 33°53' E 130°20'611.2
2018-Feb-18 02:00N 33°56' E 130°26'611.6
2018-Feb-18 01:30N 33°57' E 130°32'612.0
2018-Feb-18 01:00N 33°58' E 130°40'612.1
2018-Feb-18 00:30N 33°58' E 130°47'611.7
2018-Feb-18 00:01N 33°55' E 130°53'510.5
2018-Feb-17 23:30N 33°58' E 130°59'510.0
2018-Feb-17 23:00N 33°56' E 131°04'611.9
2018-Feb-17 22:31N 33°50' E 131°04'4 8.4
2018-Feb-17 22:00N 33°47' E 131°00'0 0.0
2018-Feb-17 21:30N 33°47' E 131°00'0 0.0
2018-Feb-17 21:00N 33°47' E 131°00'0 0.0
2018-Feb-17 20:31N 33°47' E 131°00'0 0.0
2018-Feb-17 20:00N 33°47' E 131°00'0 0.0
2018-Feb-17 19:30N 33°47' E 131°00'0 0.0
2018-Feb-17 19:00N 33°47' E 131°00'0 0.0
2018-Feb-17 18:28N 33°47' E 131°00'0 0.0
2018-Feb-17 18:00N 33°47' E 131°00'0 0.0
2018-Feb-17 17:30N 33°47' E 131°00'0 0.0
2018-Feb-17 17:00N 33°47' E 131°00'0 0.0
2018-Feb-17 16:30N 33°47' E 131°00'0 0.0
2018-Feb-17 16:00N 33°47' E 131°00'0 0.0
2018-Feb-17 15:30N 33°47' E 131°00'0 0.0
2018-Feb-17 15:01N 33°47' E 131°00'0 0.0
2018-Feb-17 14:30N 33°47' E 131°00'0 0.0
2018-Feb-17 14:00N 33°47' E 131°00'0 0.0
2018-Feb-17 13:31N 33°47' E 131°00'0 0.0
2018-Feb-17 13:00N 33°47' E 131°00'0 0.2
2018-Feb-17 12:30N 33°47' E 131°00'3 6.4
2018-Feb-17 12:00N 33°48' E 131°03'611.2
2018-Feb-17 11:30N 33°48' E 131°10'611.4
2018-Feb-17 11:00N 33°48' E 131°17'611.4
2018-Feb-17 10:31N 33°47' E 131°24'611.2
2018-Feb-17 10:00N 33°47' E 131°31'611.0
2018-Feb-17 09:30N 33°47' E 131°37'510.6
2018-Feb-17 09:00N 33°46' E 131°44'610.2
2018-Feb-17 08:27N 33°46' E 131°50'910.0
2018-Feb-17 07:35N 33°46' E 132°01'110.8
2018-Feb-17 07:30N 33°46' E 132°02'1110.9
2018-Feb-17 06:29N 33°50' E 132°14'2111.2
2018-Feb-17 04:38N 34°00' E 132°36'211.4
2018-Feb-17 04:29N 34°01' E 132°38'75 9.5
2018-Feb-16 20:32N 34°27' E 134°03'0 8.0
2018-Feb-16 20:30N 34°27' E 134°04'6 9.9
2018-Feb-16 19:55N 34°25' E 134°10'8 9.2
2018-Feb-16 19:02N 34°25' E 134°20'2 9.6
2018-Feb-16 18:52N 34°25' E 134°22'410.1
2018-Feb-16 18:30N 34°26' E 134°26'5 9.9
2018-Feb-16 18:01N 34°28' E 134°32'510.0
2018-Feb-16 17:30N 34°30' E 134°38'510.0
2018-Feb-16 17:00N 34°32' E 134°43'5 9.8
2018-Feb-16 16:30N 34°34' E 134°49'5 9.0
2018-Feb-16 16:00N 34°36' E 134°54'5 9.7
2018-Feb-16 15:30N 34°37' E 134°59'5 9.4
2018-Feb-16 15:00N 34°36' E 135°05'510.8
2018-Feb-16 14:31N 34°37' E 135°11'4 9.0
2018-Feb-16 14:01N 34°39' E 135°16'4 6.7
2018-Feb-16 13:29N 34°42' E 135°14'0 0.0
2018-Feb-16 13:00N 34°42' E 135°14'0 0.0
2018-Feb-16 12:30N 34°42' E 135°14'0 0.0
2018-Feb-16 12:00N 34°42' E 135°14'0 0.0
2018-Feb-16 11:30N 34°42' E 135°14'0 0.0
2018-Feb-16 11:00N 34°42' E 135°14'0 0.0
2018-Feb-16 10:30N 34°42' E 135°14'0 0.0
2018-Feb-16 10:00N 34°42' E 135°14'0 0.0
2018-Feb-16 09:30N 34°42' E 135°14'0 0.0
2018-Feb-16 09:00N 34°42' E 135°14'1 1.3
2018-Feb-16 08:30N 34°41' E 135°15'2 4.1
2018-Feb-16 08:01N 34°40' E 135°15'4 7.5
2018-Feb-16 07:31N 34°36' E 135°13'0 0.0
2018-Feb-16 07:00N 34°36' E 135°13'0 0.0
2018-Feb-16 06:30N 34°36' E 135°13'0 0.1
2018-Feb-16 06:00N 34°36' E 135°13'0 0.1
2018-Feb-16 05:30N 34°36' E 135°13'0 0.0
2018-Feb-16 05:00N 34°36' E 135°13'0 0.1
2018-Feb-16 04:30N 34°36' E 135°13'0 0.1
2018-Feb-16 04:00N 34°37' E 135°13'0 0.0
2018-Feb-16 03:30N 34°36' E 135°13'0 0.0
2018-Feb-16 03:00N 34°36' E 135°13'0 0.0
2018-Feb-16 02:30N 34°36' E 135°13'0 0.0
2018-Feb-16 02:00N 34°37' E 135°13'0 0.0
2018-Feb-16 01:30N 34°37' E 135°13'0 0.0
2018-Feb-16 01:00N 34°37' E 135°13'0 0.0
2018-Feb-16 00:30N 34°36' E 135°13'0 0.0
2018-Feb-16 00:00N 34°37' E 135°13'0 0.0
2018-Feb-15 23:30N 34°37' E 135°13'0 0.0
2018-Feb-15 23:00N 34°37' E 135°13'0 0.0
2018-Feb-15 22:30N 34°37' E 135°13'0 0.0
2018-Feb-15 22:00N 34°37' E 135°13'0 0.0
2018-Feb-15 21:30N 34°37' E 135°13'0 0.0
2018-Feb-15 21:00N 34°37' E 135°13'0 0.0
2018-Feb-15 20:30N 34°37' E 135°13'0 0.0
2018-Feb-15 20:00N 34°37' E 135°13'0 0.0
2018-Feb-15 19:30N 34°37' E 135°13'0 0.0
2018-Feb-15 19:00N 34°37' E 135°13'5 9.4
2018-Feb-15 18:30N 34°35' E 135°07'713.7
2018-Feb-15 18:00N 34°37' E 134°59'814.8
2018-Feb-15 17:30N 34°34' E 134°51'612.6
2018-Feb-15 17:00N 34°31' E 134°44'611.7
2018-Feb-15 16:30N 34°29' E 134°38'611.2
2018-Feb-15 16:00N 34°27' E 134°31'1611.2
2018-Feb-15 14:36N 34°24' E 134°12'7610.6
2018-Feb-15 07:27N 34°04' E 132°44'511.3
2018-Feb-15 07:00N 34°02' E 132°39'710.4
2018-Feb-15 06:19N 33°57' E 132°32'310.3
2018-Feb-15 06:00N 33°55' E 132°29'710.6
2018-Feb-15 05:23N 33°50' E 132°23'410.1
2018-Feb-15 04:59N 33°50' E 132°18'511.2
2018-Feb-15 04:30N 33°49' E 132°12'510.8
2018-Feb-15 04:00N 33°47' E 132°06'611.1
2018-Feb-15 03:26N 33°45' E 131°59'512.1
2018-Feb-15 03:00N 33°46' E 131°53'612.3
2018-Feb-15 02:30N 33°46' E 131°45'612.2
2018-Feb-15 02:00N 33°46' E 131°38'612.2
2018-Feb-15 01:30N 33°47' E 131°31'611.8
2018-Feb-15 01:00N 33°48' E 131°24'611.6
2018-Feb-15 00:30N 33°48' E 131°17'611.3
2018-Feb-15 00:00N 33°49' E 131°10'611.4
2018-Feb-14 23:30N 33°48' E 131°03'3 6.0
2018-Feb-14 23:00N 33°47' E 131°00'0 0.0
2018-Feb-14 22:30N 33°47' E 131°00'0 0.0
2018-Feb-14 21:59N 33°47' E 131°00'0 0.0
2018-Feb-14 21:30N 33°47' E 131°00'0 0.0
2018-Feb-14 20:59N 33°47' E 131°00'0 0.0
2018-Feb-14 20:30N 33°47' E 131°00'0 0.0
2018-Feb-14 19:59N 33°47' E 131°00'0 0.0
2018-Feb-14 19:29N 33°47' E 131°00'0 0.0
2018-Feb-14 19:00N 33°47' E 131°00'0 0.0
2018-Feb-14 18:30N 33°47' E 131°00'0 0.0
2018-Feb-14 18:00N 33°47' E 131°00'0 0.0
2018-Feb-14 17:30N 33°47' E 131°00'0 0.0
2018-Feb-14 16:58N 33°47' E 131°00'0 0.0
2018-Feb-14 16:30N 33°47' E 131°00'0 0.0
2018-Feb-14 16:00N 33°47' E 131°00'0 0.0
2018-Feb-14 15:30N 33°47' E 131°00'0 0.0
2018-Feb-14 15:00N 33°47' E 131°00'0 0.0
2018-Feb-14 14:30N 33°47' E 131°00'0 0.0
2018-Feb-14 14:00N 33°47' E 131°00'0 0.0
2018-Feb-14 13:29N 33°47' E 131°00'0 0.0
2018-Feb-14 13:00N 33°47' E 131°00'0 0.0
2018-Feb-14 12:30N 33°47' E 131°00'0 0.0
2018-Feb-14 12:00N 33°47' E 131°00'0 0.0
2018-Feb-14 11:30N 33°47' E 131°00'0 0.0
2018-Feb-14 11:00N 33°47' E 131°00'0 0.0
2018-Feb-14 10:30N 33°47' E 131°00'0 0.0
2018-Feb-14 10:00N 33°47' E 131°00'0 0.0
2018-Feb-14 09:29N 33°47' E 131°00'0 0.0
2018-Feb-14 09:00N 33°47' E 131°00'0 0.0
2018-Feb-14 08:30N 33°47' E 131°00'0 0.0
2018-Feb-14 08:00N 33°47' E 131°00'0 0.0
2018-Feb-14 07:30N 33°47' E 131°00'0 0.0
2018-Feb-14 07:00N 33°47' E 131°00'0 0.0
2018-Feb-14 06:30N 33°47' E 131°00'0 0.0
2018-Feb-14 06:00N 33°47' E 131°00'0 0.0
2018-Feb-14 05:30N 33°47' E 131°00'0 0.0
2018-Feb-14 04:58N 33°47' E 131°00'0 0.0
2018-Feb-14 04:30N 33°47' E 131°00'0 0.0
2018-Feb-14 04:00N 33°47' E 131°00'0 0.0
2018-Feb-14 03:30N 33°47' E 131°00'0 0.0
2018-Feb-14 03:00N 33°47' E 131°00'0 0.0
2018-Feb-14 02:30N 33°47' E 131°00'0 0.0
2018-Feb-14 02:00N 33°47' E 131°00'0 0.0
2018-Feb-14 01:30N 33°47' E 131°00'0 0.0
2018-Feb-14 01:00N 33°47' E 131°00'3 5.4
2018-Feb-14 00:30N 33°48' E 131°03'510.8
2018-Feb-14 00:00N 33°48' E 131°09'610.9
2018-Feb-13 23:30N 33°48' E 131°16'611.0
2018-Feb-13 22:58N 33°47' E 131°23'511.1
2018-Feb-13 22:30N 33°47' E 131°29'511.0
2018-Feb-13 22:00N 33°47' E 131°35'611.3
2018-Feb-13 21:30N 33°47' E 131°42'611.4
2018-Feb-13 21:00N 33°46' E 131°49'611.1
2018-Feb-13 20:30N 33°46' E 131°56'510.8
2018-Feb-13 20:00N 33°46' E 132°02'810.8
2018-Feb-13 19:17N 33°49' E 132°10'310.6
2018-Feb-13 19:00N 33°50' E 132°14'510.9
2018-Feb-13 18:30N 33°50' E 132°21'610.6
2018-Feb-13 17:55N 33°53' E 132°27'511.3
2018-Feb-13 17:27N 33°57' E 132°32'511.8
2018-Feb-13 17:00N 34°00' E 132°36'9010.5
2018-Feb-13 08:25N 34°25' E 134°21'510.5
2018-Feb-13 07:59N 34°27' E 134°26'510.4
2018-Feb-13 07:30N 34°29' E 134°32'510.0
2018-Feb-13 07:00N 34°30' E 134°38'5 9.8
2018-Feb-13 06:30N 34°32' E 134°43'5 9.6
2018-Feb-13 06:00N 34°34' E 134°49'4 8.8
2018-Feb-13 05:30N 34°36' E 134°53'4 8.1
2018-Feb-13 05:00N 34°37' E 134°58'3 6.6
2018-Feb-13 04:30N 34°37' E 135°02'4 7.8
2018-Feb-13 04:00N 34°36' E 135°07'5 9.4
2018-Feb-13 03:30N 34°37' E 135°12'4 7.2
2018-Feb-13 03:00N 34°40' E 135°15'2 4.6
2018-Feb-13 02:30N 34°42' E 135°14'0 0.0
2018-Feb-13 02:00N 34°42' E 135°14'0 0.0
2018-Feb-13 01:30N 34°42' E 135°14'0 0.0
2018-Feb-13 01:00N 34°42' E 135°14'0 0.0
2018-Feb-13 00:30N 34°42' E 135°14'0 0.0
2018-Feb-13 00:00N 34°42' E 135°14'0 0.0
2018-Feb-12 23:30N 34°42' E 135°14'0 0.8
2018-Feb-12 23:00N 34°42' E 135°14'3 6.9
2018-Feb-12 22:30N 34°38' E 135°16'3 6.2
2018-Feb-12 22:01N 34°37' E 135°13'0 0.0
2018-Feb-12 21:30N 34°37' E 135°13'0 0.0
2018-Feb-12 21:00N 34°37' E 135°13'0 0.0
2018-Feb-12 20:30N 34°37' E 135°13'0 0.0
2018-Feb-12 20:00N 34°37' E 135°13'0 0.0
2018-Feb-12 19:30N 34°37' E 135°13'0 0.0
2018-Feb-12 19:00N 34°37' E 135°13'0 0.0
2018-Feb-12 18:30N 34°36' E 135°13'0 0.2
2018-Feb-12 18:01N 34°37' E 135°13'611.4
2018-Feb-12 17:30N 34°35' E 135°06'713.3
2018-Feb-12 17:00N 34°37' E 134°58'714.3
2018-Feb-12 16:30N 34°34' E 134°51'612.8
2018-Feb-12 16:00N 34°31' E 134°44'612.2
2018-Feb-12 15:31N 34°29' E 134°37'612.0
2018-Feb-12 14:59N 34°26' E 134°30'712.0
2018-Feb-12 14:23N 34°24' E 134°21'8411.5
2018-Feb-12 07:04N 34°03' E 132°43'111.7
2018-Feb-12 07:00N 34°03' E 132°42'1011.7
2018-Feb-12 06:08N 33°57' E 132°32'311.3
2018-Feb-12 05:51N 33°55' E 132°29'711.2
2018-Feb-12 05:15N 33°51' E 132°23'311.2
2018-Feb-12 05:00N 33°50' E 132°20'611.7
2018-Feb-12 04:30N 33°49' E 132°13'711.0
2018-Feb-12 03:51N 33°46' E 132°05'511.0
2018-Feb-12 03:26N 33°45' E 131°59'511.6
2018-Feb-12 03:00N 33°45' E 131°53'611.8
2018-Feb-12 02:30N 33°46' E 131°46'612.2
2018-Feb-12 02:00N 33°47' E 131°39'612.3
2018-Feb-12 01:30N 33°47' E 131°32'612.1
2018-Feb-12 01:00N 33°48' E 131°25'612.0
2018-Feb-12 00:30N 33°48' E 131°17'611.9
2018-Feb-12 00:00N 33°48' E 131°10'611.8
2018-Feb-11 23:29N 33°48' E 131°03'3 5.7
2018-Feb-11 23:00N 33°47' E 131°00'0 0.0
2018-Feb-11 22:28N 33°47' E 131°00'0 0.0
2018-Feb-11 21:59N 33°47' E 131°00'0 0.0
2018-Feb-11 21:30N 33°47' E 131°00'0 0.0
2018-Feb-11 21:01N 33°47' E 131°00'0 0.0
2018-Feb-11 20:29N 33°47' E 131°00'0 0.0
2018-Feb-11 20:00N 33°47' E 131°00'0 0.0
2018-Feb-11 19:30N 33°47' E 131°00'0 0.0
2018-Feb-11 18:58N 33°47' E 131°00'0 0.0
2018-Feb-11 18:29N 33°47' E 131°00'0 0.0
2018-Feb-11 18:00N 33°47' E 131°00'0 0.0
2018-Feb-11 17:30N 33°47' E 131°00'0 0.0
2018-Feb-11 17:00N 33°47' E 131°00'0 0.0
2018-Feb-11 16:30N 33°47' E 131°00'0 0.0
2018-Feb-11 16:00N 33°47' E 131°00'0 0.0
2018-Feb-11 15:30N 33°47' E 131°00'0 0.0
2018-Feb-11 15:00N 33°47' E 131°00'0 0.0
2018-Feb-11 14:30N 33°47' E 131°00'0 0.0
2018-Feb-11 14:00N 33°47' E 131°00'0 0.0
2018-Feb-11 13:29N 33°47' E 131°00'0 0.0
2018-Feb-11 13:00N 33°47' E 131°00'0 0.0
2018-Feb-11 12:30N 33°47' E 131°00'0 0.0
2018-Feb-11 12:00N 33°47' E 131°00'0 0.0
2018-Feb-11 11:30N 33°47' E 131°00'0 0.0
2018-Feb-11 11:00N 33°47' E 131°00'0 0.0
2018-Feb-11 10:30N 33°47' E 131°00'0 0.0
2018-Feb-11 10:00N 33°47' E 131°00'0 0.0
2018-Feb-11 09:30N 33°47' E 131°00'0 0.0
2018-Feb-11 09:00N 33°47' E 131°00'0 0.0
2018-Feb-11 08:30N 33°47' E 131°00'0 0.0
2018-Feb-11 08:00N 33°47' E 131°00'0 0.2
2018-Feb-11 07:30N 33°47' E 131°00'3 5.4
2018-Feb-11 07:00N 33°48' E 131°03'510.5
2018-Feb-11 06:30N 33°48' E 131°09'510.5
2018-Feb-11 06:00N 33°48' E 131°16'510.1
2018-Feb-11 05:30N 33°48' E 131°22'5 9.7
2018-Feb-11 05:00N 33°47' E 131°28'5 9.8
2018-Feb-11 04:30N 33°47' E 131°33'5 9.7
2018-Feb-11 04:00N 33°47' E 131°39'5 9.7
2018-Feb-11 03:30N 33°46' E 131°45'5 9.7
2018-Feb-11 02:57N 33°46' E 131°51'8 9.9
2018-Feb-11 02:07N 33°46' E 132°01'110.5
2018-Feb-11 02:00N 33°46' E 132°03'711.1
2018-Feb-11 01:20N 33°49' E 132°11'410.8
2018-Feb-11 01:00N 33°50' E 132°15'610.9
2018-Feb-11 00:29N 33°50' E 132°22'1110.8
2018-Feb-10 23:30N 33°57' E 132°32'5 9.9
2018-Feb-10 23:00N 34°00' E 132°36'510.4
2018-Feb-10 22:29N 34°03' E 132°41'72 9.3
2018-Feb-10 14:46N 34°27' E 134°03'5 9.6
2018-Feb-10 14:15N 34°26' E 134°09'2 9.3
2018-Feb-10 13:59N 34°25' E 134°12'7 9.3
2018-Feb-10 13:16N 34°25' E 134°20'310.2
2018-Feb-10 12:58N 34°26' E 134°24'510.4
2018-Feb-10 12:29N 34°27' E 134°30'510.6
2018-Feb-10 12:01N 34°29' E 134°35'510.4
2018-Feb-10 11:31N 34°31' E 134°41'510.8
2018-Feb-10 11:00N 34°33' E 134°47'510.8
2018-Feb-10 10:30N 34°35' E 134°53'510.9
2018-Feb-10 10:01N 34°38' E 134°59'611.1
2018-Feb-10 09:30N 34°36' E 135°06'611.6
2018-Feb-10 09:00N 34°37' E 135°13'4 7.5
2018-Feb-10 08:30N 34°40' E 135°15'2 3.6
2018-Feb-10 08:00N 34°42' E 135°14'0 0.0
2018-Feb-10 07:30N 34°42' E 135°14'0 0.0
2018-Feb-10 07:00N 34°42' E 135°14'0 0.0
2018-Feb-10 06:30N 34°42' E 135°14'0 0.0
2018-Feb-10 06:00N 34°42' E 135°14'0 0.0
2018-Feb-10 05:30N 34°42' E 135°14'0 0.0
2018-Feb-10 05:00N 34°42' E 135°14'0 0.0
2018-Feb-10 04:30N 34°42' E 135°14'0 0.0
2018-Feb-10 04:00N 34°42' E 135°14'0 0.0
2018-Feb-10 03:30N 34°42' E 135°14'0 0.0
2018-Feb-10 03:00N 34°42' E 135°14'4 8.0
2018-Feb-10 02:31N 34°38' E 135°16'510.5
2018-Feb-10 02:00N 34°36' E 135°10'510.4
2018-Feb-10 01:30N 34°35' E 135°04'611.2
2018-Feb-10 01:00N 34°36' E 134°57'611.4
2018-Feb-10 00:30N 34°34' E 134°50'511.2
2018-Feb-10 00:00N 34°32' E 134°44'611.5
2018-Feb-09 23:30N 34°29' E 134°38'611.5
2018-Feb-09 23:00N 34°27' E 134°32'  
Track history (hours):
 
Tides and Currents Weather Stations Pressure Air Temp Water Temp Dewpoint Dewpoint Depression Visibility Wind Speed Wind Dir Waves Ship Positions

Tatsuryo Maru

Last reported at 2018-Feb-19 13:59 UTC. Time now 2018-Feb-19 14:20 UTC.
Position N 33°57' E 131°14'.

Length 59 m; draft 3.5 m.

Type: Cargo ship. MMSI: 431400121.

Date/timePositionNaut miles runAvg speedWind from/ knotsBaromVisibWave heightAir tempDewpointWater temp
2018-Feb-19 13:59N 33°57' E 131°14'0 0.0
2018-Feb-19 13:30N 33°57' E 131°14'1 2.0
2018-Feb-19 13:00N 33°56' E 131°13'5 9.4
2018-Feb-19 12:30N 33°55' E 131°08'510.2
2018-Feb-19 12:00N 33°58' E 131°02'4 8.9
2018-Feb-19 11:30N 33°57' E 130°57'4 7.8
2018-Feb-19 11:00N 33°55' E 130°53'510.2
2018-Feb-19 10:30N 33°58' E 130°48'510.4
2018-Feb-19 10:00N 33°58' E 130°42'510.3
2018-Feb-19 09:30N 33°57' E 130°36'510.5
2018-Feb-19 09:00N 33°57' E 130°29'510.5
2018-Feb-19 08:30N 33°55' E 130°23'510.3
2018-Feb-19 08:00N 33°53' E 130°18'510.6
2018-Feb-19 07:30N 33°50' E 130°12'510.6
2018-Feb-19 07:00N 33°47' E 130°07'510.9
2018-Feb-19 06:30N 33°44' E 130°02'10 0.4
2018-Feb-18 04:59N 33°38' E 129°52'611.1
2018-Feb-18 04:24N 33°42' E 129°58'410.9
2018-Feb-18 04:00N 33°44' E 130°03'611.3
2018-Feb-18 03:30N 33°47' E 130°08'611.2
2018-Feb-18 03:00N 33°51' E 130°14'611.4
2018-Feb-18 02:30N 33°53' E 130°20'611.2
2018-Feb-18 02:00N 33°56' E 130°26'611.6
2018-Feb-18 01:30N 33°57' E 130°32'612.0
2018-Feb-18 01:00N 33°58' E 130°40'612.1
2018-Feb-18 00:30N 33°58' E 130°47'611.7
2018-Feb-18 00:01N 33°55' E 130°53'510.5
2018-Feb-17 23:30N 33°58' E 130°59'510.0
2018-Feb-17 23:00N 33°56' E 131°04'611.9
2018-Feb-17 22:31N 33°50' E 131°04'4 8.4
2018-Feb-17 22:00N 33°47' E 131°00'0 0.0
2018-Feb-17 21:30N 33°47' E 131°00'0 0.0
2018-Feb-17 21:00N 33°47' E 131°00'0 0.0
2018-Feb-17 20:31N 33°47' E 131°00'0 0.0
2018-Feb-17 20:00N 33°47' E 131°00'0 0.0
2018-Feb-17 19:30N 33°47' E 131°00'0 0.0
2018-Feb-17 19:00N 33°47' E 131°00'0 0.0
2018-Feb-17 18:28N 33°47' E 131°00'0 0.0
2018-Feb-17 18:00N 33°47' E 131°00'0 0.0
2018-Feb-17 17:30N 33°47' E 131°00'0 0.0
2018-Feb-17 17:00N 33°47' E 131°00'0 0.0
2018-Feb-17 16:30N 33°47' E 131°00'0 0.0
2018-Feb-17 16:00N 33°47' E 131°00'0 0.0
2018-Feb-17 15:30N 33°47' E 131°00'0 0.0
2018-Feb-17 15:01N 33°47' E 131°00'0 0.0
2018-Feb-17 14:30N 33°47' E 131°00'0 0.0
2018-Feb-17 14:00N 33°47' E 131°00'0 0.0
2018-Feb-17 13:31N 33°47' E 131°00'0 0.0
2018-Feb-17 13:00N 33°47' E 131°00'0 0.2
2018-Feb-17 12:30N 33°47' E 131°00'3 6.4
2018-Feb-17 12:00N 33°48' E 131°03'611.2
2018-Feb-17 11:30N 33°48' E 131°10'611.4
2018-Feb-17 11:00N 33°48' E 131°17'611.4
2018-Feb-17 10:31N 33°47' E 131°24'611.2
2018-Feb-17 10:00N 33°47' E 131°31'611.0
2018-Feb-17 09:30N 33°47' E 131°37'510.6
2018-Feb-17 09:00N 33°46' E 131°44'610.2
2018-Feb-17 08:27N 33°46' E 131°50'910.0
2018-Feb-17 07:35N 33°46' E 132°01'110.8
2018-Feb-17 07:30N 33°46' E 132°02'1110.9
2018-Feb-17 06:29N 33°50' E 132°14'2111.2
2018-Feb-17 04:38N 34°00' E 132°36'211.4
2018-Feb-17 04:29N 34°01' E 132°38'75 9.5
2018-Feb-16 20:32N 34°27' E 134°03'0 8.0
2018-Feb-16 20:30N 34°27' E 134°04'6 9.9
2018-Feb-16 19:55N 34°25' E 134°10'8 9.2
2018-Feb-16 19:02N 34°25' E 134°20'2 9.6
2018-Feb-16 18:52N 34°25' E 134°22'410.1
2018-Feb-16 18:30N 34°26' E 134°26'5 9.9
2018-Feb-16 18:01N 34°28' E 134°32'510.0
2018-Feb-16 17:30N 34°30' E 134°38'510.0
2018-Feb-16 17:00N 34°32' E 134°43'5 9.8
2018-Feb-16 16:30N 34°34' E 134°49'5 9.0
2018-Feb-16 16:00N 34°36' E 134°54'5 9.7
2018-Feb-16 15:30N 34°37' E 134°59'5 9.4
2018-Feb-16 15:00N 34°36' E 135°05'510.8
2018-Feb-16 14:31N 34°37' E 135°11'4 9.0
2018-Feb-16 14:01N 34°39' E 135°16'4 6.7
2018-Feb-16 13:29N 34°42' E 135°14'0 0.0
2018-Feb-16 13:00N 34°42' E 135°14'0 0.0
2018-Feb-16 12:30N 34°42' E 135°14'0 0.0
2018-Feb-16 12:00N 34°42' E 135°14'0 0.0
2018-Feb-16 11:30N 34°42' E 135°14'0 0.0
2018-Feb-16 11:00N 34°42' E 135°14'0 0.0
2018-Feb-16 10:30N 34°42' E 135°14'0 0.0
2018-Feb-16 10:00N 34°42' E 135°14'0 0.0
2018-Feb-16 09:30N 34°42' E 135°14'0 0.0
2018-Feb-16 09:00N 34°42' E 135°14'1 1.3
2018-Feb-16 08:30N 34°41' E 135°15'2 4.1
2018-Feb-16 08:01N 34°40' E 135°15'4 7.5
2018-Feb-16 07:31N 34°36' E 135°13'0 0.0
2018-Feb-16 07:00N 34°36' E 135°13'0 0.0
2018-Feb-16 06:30N 34°36' E 135°13'0 0.1
2018-Feb-16 06:00N 34°36' E 135°13'0 0.1
2018-Feb-16 05:30N 34°36' E 135°13'0 0.0
2018-Feb-16 05:00N 34°36' E 135°13'0 0.1
2018-Feb-16 04:30N 34°36' E 135°13'0 0.1
2018-Feb-16 04:00N 34°37' E 135°13'0 0.0
2018-Feb-16 03:30N 34°36' E 135°13'0 0.0
2018-Feb-16 03:00N 34°36' E 135°13'0 0.0
2018-Feb-16 02:30N 34°36' E 135°13'0 0.0
2018-Feb-16 02:00N 34°37' E 135°13'0 0.0
2018-Feb-16 01:30N 34°37' E 135°13'0 0.0
2018-Feb-16 01:00N 34°37' E 135°13'0 0.0
2018-Feb-16 00:30N 34°36' E 135°13'0 0.0
2018-Feb-16 00:00N 34°37' E 135°13'0 0.0
2018-Feb-15 23:30N 34°37' E 135°13'0 0.0
2018-Feb-15 23:00N 34°37' E 135°13'0 0.0
2018-Feb-15 22:30N 34°37' E 135°13'0 0.0
2018-Feb-15 22:00N 34°37' E 135°13'0 0.0
2018-Feb-15 21:30N 34°37' E 135°13'0 0.0
2018-Feb-15 21:00N 34°37' E 135°13'0 0.0
2018-Feb-15 20:30N 34°37' E 135°13'0 0.0
2018-Feb-15 20:00N 34°37' E 135°13'0 0.0
2018-Feb-15 19:30N 34°37' E 135°13'0 0.0
2018-Feb-15 19:00N 34°37' E 135°13'5 9.4
2018-Feb-15 18:30N 34°35' E 135°07'713.7
2018-Feb-15 18:00N 34°37' E 134°59'814.8
2018-Feb-15 17:30N 34°34' E 134°51'612.6
2018-Feb-15 17:00N 34°31' E 134°44'611.7
2018-Feb-15 16:30N 34°29' E 134°38'611.2
2018-Feb-15 16:00N 34°27' E 134°31'1611.2
2018-Feb-15 14:36N 34°24' E 134°12'7610.6
2018-Feb-15 07:27N 34°04' E 132°44'511.3
2018-Feb-15 07:00N 34°02' E 132°39'710.4
2018-Feb-15 06:19N 33°57' E 132°32'310.3
2018-Feb-15 06:00N 33°55' E 132°29'710.6
2018-Feb-15 05:23N 33°50' E 132°23'410.1
2018-Feb-15 04:59N 33°50' E 132°18'511.2
2018-Feb-15 04:30N 33°49' E 132°12'510.8
2018-Feb-15 04:00N 33°47' E 132°06'611.1
2018-Feb-15 03:26N 33°45' E 131°59'512.1
2018-Feb-15 03:00N 33°46' E 131°53'612.3
2018-Feb-15 02:30N 33°46' E 131°45'612.2
2018-Feb-15 02:00N 33°46' E 131°38'612.2
2018-Feb-15 01:30N 33°47' E 131°31'611.8
2018-Feb-15 01:00N 33°48' E 131°24'611.6
2018-Feb-15 00:30N 33°48' E 131°17'611.3
2018-Feb-15 00:00N 33°49' E 131°10'611.4
2018-Feb-14 23:30N 33°48' E 131°03'3 6.0
2018-Feb-14 23:00N 33°47' E 131°00'0 0.0
2018-Feb-14 22:30N 33°47' E 131°00'0 0.0
2018-Feb-14 21:59N 33°47' E 131°00'0 0.0
2018-Feb-14 21:30N 33°47' E 131°00'0 0.0
2018-Feb-14 20:59N 33°47' E 131°00'0 0.0
2018-Feb-14 20:30N 33°47' E 131°00'0 0.0
2018-Feb-14 19:59N 33°47' E 131°00'0 0.0
2018-Feb-14 19:29N 33°47' E 131°00'0 0.0
2018-Feb-14 19:00N 33°47' E 131°00'0 0.0
2018-Feb-14 18:30N 33°47' E 131°00'0 0.0
2018-Feb-14 18:00N 33°47' E 131°00'0 0.0
2018-Feb-14 17:30N 33°47' E 131°00'0 0.0
2018-Feb-14 16:58N 33°47' E 131°00'0 0.0
2018-Feb-14 16:30N 33°47' E 131°00'0 0.0
2018-Feb-14 16:00N 33°47' E 131°00'0 0.0
2018-Feb-14 15:30N 33°47' E 131°00'0 0.0
2018-Feb-14 15:00N 33°47' E 131°00'0 0.0
2018-Feb-14 14:30N 33°47' E 131°00'0 0.0
2018-Feb-14 14:00N 33°47' E 131°00'0 0.0
2018-Feb-14 13:29N 33°47' E 131°00'0 0.0
2018-Feb-14 13:00N 33°47' E 131°00'0 0.0
2018-Feb-14 12:30N 33°47' E 131°00'0 0.0
2018-Feb-14 12:00N 33°47' E 131°00'0 0.0
2018-Feb-14 11:30N 33°47' E 131°00'0 0.0
2018-Feb-14 11:00N 33°47' E 131°00'0 0.0
2018-Feb-14 10:30N 33°47' E 131°00'0 0.0
2018-Feb-14 10:00N 33°47' E 131°00'0 0.0
2018-Feb-14 09:29N 33°47' E 131°00'0 0.0
2018-Feb-14 09:00N 33°47' E 131°00'0 0.0
2018-Feb-14 08:30N 33°47' E 131°00'0 0.0
2018-Feb-14 08:00N 33°47' E 131°00'0 0.0
2018-Feb-14 07:30N 33°47' E 131°00'0 0.0
2018-Feb-14 07:00N 33°47' E 131°00'0 0.0
2018-Feb-14 06:30N 33°47' E 131°00'0 0.0
2018-Feb-14 06:00N 33°47' E 131°00'0 0.0
2018-Feb-14 05:30N 33°47' E 131°00'0 0.0
2018-Feb-14 04:58N 33°47' E 131°00'0 0.0
2018-Feb-14 04:30N 33°47' E 131°00'0 0.0
2018-Feb-14 04:00N 33°47' E 131°00'0 0.0
2018-Feb-14 03:30N 33°47' E 131°00'0 0.0
2018-Feb-14 03:00N 33°47' E 131°00'0 0.0
2018-Feb-14 02:30N 33°47' E 131°00'0 0.0
2018-Feb-14 02:00N 33°47' E 131°00'0 0.0
2018-Feb-14 01:30N 33°47' E 131°00'0 0.0
2018-Feb-14 01:00N 33°47' E 131°00'3 5.4
2018-Feb-14 00:30N 33°48' E 131°03'510.8
2018-Feb-14 00:00N 33°48' E 131°09'610.9
2018-Feb-13 23:30N 33°48' E 131°16'611.0
2018-Feb-13 22:58N 33°47' E 131°23'511.1
2018-Feb-13 22:30N 33°47' E 131°29'511.0
2018-Feb-13 22:00N 33°47' E 131°35'611.3
2018-Feb-13 21:30N 33°47' E 131°42'611.4
2018-Feb-13 21:00N 33°46' E 131°49'611.1
2018-Feb-13 20:30N 33°46' E 131°56'510.8
2018-Feb-13 20:00N 33°46' E 132°02'810.8
2018-Feb-13 19:17N 33°49' E 132°10'310.6
2018-Feb-13 19:00N 33°50' E 132°14'510.9
2018-Feb-13 18:30N 33°50' E 132°21'610.6
2018-Feb-13 17:55N 33°53' E 132°27'511.3
2018-Feb-13 17:27N 33°57' E 132°32'511.8
2018-Feb-13 17:00N 34°00' E 132°36'9010.5
2018-Feb-13 08:25N 34°25' E 134°21'510.5
2018-Feb-13 07:59N 34°27' E 134°26'510.4
2018-Feb-13 07:30N 34°29' E 134°32'510.0
2018-Feb-13 07:00N 34°30' E 134°38'5 9.8
2018-Feb-13 06:30N 34°32' E 134°43'5 9.6
2018-Feb-13 06:00N 34°34' E 134°49'4 8.8
2018-Feb-13 05:30N 34°36' E 134°53'4 8.1
2018-Feb-13 05:00N 34°37' E 134°58'3 6.6
2018-Feb-13 04:30N 34°37' E 135°02'4 7.8
2018-Feb-13 04:00N 34°36' E 135°07'5 9.4
2018-Feb-13 03:30N 34°37' E 135°12'4 7.2
2018-Feb-13 03:00N 34°40' E 135°15'2 4.6
2018-Feb-13 02:30N 34°42' E 135°14'0 0.0
2018-Feb-13 02:00N 34°42' E 135°14'0 0.0
2018-Feb-13 01:30N 34°42' E 135°14'0 0.0
2018-Feb-13 01:00N 34°42' E 135°14'0 0.0
2018-Feb-13 00:30N 34°42' E 135°14'0 0.0
2018-Feb-13 00:00N 34°42' E 135°14'0 0.0
2018-Feb-12 23:30N 34°42' E 135°14'0 0.8
2018-Feb-12 23:00N 34°42' E 135°14'3 6.9
2018-Feb-12 22:30N 34°38' E 135°16'3 6.2
2018-Feb-12 22:01N 34°37' E 135°13'0 0.0
2018-Feb-12 21:30N 34°37' E 135°13'0 0.0
2018-Feb-12 21:00N 34°37' E 135°13'0 0.0
2018-Feb-12 20:30N 34°37' E 135°13'0 0.0
2018-Feb-12 20:00N 34°37' E 135°13'0 0.0
2018-Feb-12 19:30N 34°37' E 135°13'0 0.0
2018-Feb-12 19:00N 34°37' E 135°13'0 0.0
2018-Feb-12 18:30N 34°36' E 135°13'0 0.2
2018-Feb-12 18:01N 34°37' E 135°13'611.4
2018-Feb-12 17:30N 34°35' E 135°06'713.3
2018-Feb-12 17:00N 34°37' E 134°58'714.3
2018-Feb-12 16:30N 34°34' E 134°51'612.8
2018-Feb-12 16:00N 34°31' E 134°44'612.2
2018-Feb-12 15:31N 34°29' E 134°37'612.0
2018-Feb-12 14:59N 34°26' E 134°30'712.0
2018-Feb-12 14:23N 34°24' E 134°21'8411.5
2018-Feb-12 07:04N 34°03' E 132°43'111.7
2018-Feb-12 07:00N 34°03' E 132°42'1011.7
2018-Feb-12 06:08N 33°57' E 132°32'311.3
2018-Feb-12 05:51N 33°55' E 132°29'711.2
2018-Feb-12 05:15N 33°51' E 132°23'311.2
2018-Feb-12 05:00N 33°50' E 132°20'611.7
2018-Feb-12 04:30N 33°49' E 132°13'711.0
2018-Feb-12 03:51N 33°46' E 132°05'511.0
2018-Feb-12 03:26N 33°45' E 131°59'511.6
2018-Feb-12 03:00N 33°45' E 131°53'611.8
2018-Feb-12 02:30N 33°46' E 131°46'612.2
2018-Feb-12 02:00N 33°47' E 131°39'612.3
2018-Feb-12 01:30N 33°47' E 131°32'612.1
2018-Feb-12 01:00N 33°48' E 131°25'612.0
2018-Feb-12 00:30N 33°48' E 131°17'611.9
2018-Feb-12 00:00N 33°48' E 131°10'611.8
2018-Feb-11 23:29N 33°48' E 131°03'3 5.7
2018-Feb-11 23:00N 33°47' E 131°00'0 0.0
2018-Feb-11 22:28N 33°47' E 131°00'0 0.0
2018-Feb-11 21:59N 33°47' E 131°00'0 0.0
2018-Feb-11 21:30N 33°47' E 131°00'0 0.0
2018-Feb-11 21:01N 33°47' E 131°00'0 0.0
2018-Feb-11 20:29N 33°47' E 131°00'0 0.0
2018-Feb-11 20:00N 33°47' E 131°00'0 0.0
2018-Feb-11 19:30N 33°47' E 131°00'0 0.0
2018-Feb-11 18:58N 33°47' E 131°00'0 0.0
2018-Feb-11 18:29N 33°47' E 131°00'0 0.0
2018-Feb-11 18:00N 33°47' E 131°00'0 0.0
2018-Feb-11 17:30N 33°47' E 131°00'0 0.0
2018-Feb-11 17:00N 33°47' E 131°00'0 0.0
2018-Feb-11 16:30N 33°47' E 131°00'0 0.0
2018-Feb-11 16:00N 33°47' E 131°00'0 0.0
2018-Feb-11 15:30N 33°47' E 131°00'0 0.0
2018-Feb-11 15:00N 33°47' E 131°00'0 0.0
2018-Feb-11 14:30N 33°47' E 131°00'0 0.0
2018-Feb-11 14:00N 33°47' E 131°00'0 0.0
2018-Feb-11 13:29N 33°47' E 131°00'0 0.0
2018-Feb-11 13:00N 33°47' E 131°00'0 0.0
2018-Feb-11 12:30N 33°47' E 131°00'0 0.0
2018-Feb-11 12:00N 33°47' E 131°00'0 0.0
2018-Feb-11 11:30N 33°47' E 131°00'0 0.0
2018-Feb-11 11:00N 33°47' E 131°00'0 0.0
2018-Feb-11 10:30N 33°47' E 131°00'0 0.0
2018-Feb-11 10:00N 33°47' E 131°00'0 0.0
2018-Feb-11 09:30N 33°47' E 131°00'0 0.0
2018-Feb-11 09:00N 33°47' E 131°00'0 0.0
2018-Feb-11 08:30N 33°47' E 131°00'0 0.0
2018-Feb-11 08:00N 33°47' E 131°00'0 0.2
2018-Feb-11 07:30N 33°47' E 131°00'3 5.4
2018-Feb-11 07:00N 33°48' E 131°03'510.5
2018-Feb-11 06:30N 33°48' E 131°09'510.5
2018-Feb-11 06:00N 33°48' E 131°16'510.1
2018-Feb-11 05:30N 33°48' E 131°22'5 9.7
2018-Feb-11 05:00N 33°47' E 131°28'5 9.8
2018-Feb-11 04:30N 33°47' E 131°33'5 9.7
2018-Feb-11 04:00N 33°47' E 131°39'5 9.7
2018-Feb-11 03:30N 33°46' E 131°45'5 9.7
2018-Feb-11 02:57N 33°46' E 131°51'8 9.9
2018-Feb-11 02:07N 33°46' E 132°01'110.5
2018-Feb-11 02:00N 33°46' E 132°03'711.1
2018-Feb-11 01:20N 33°49' E 132°11'410.8
2018-Feb-11 01:00N 33°50' E 132°15'610.9
2018-Feb-11 00:29N 33°50' E 132°22'1110.8
2018-Feb-10 23:30N 33°57' E 132°32'5 9.9
2018-Feb-10 23:00N 34°00' E 132°36'510.4
2018-Feb-10 22:29N 34°03' E 132°41'72 9.3
2018-Feb-10 14:46N 34°27' E 134°03'5 9.6
2018-Feb-10 14:15N 34°26' E 134°09'2 9.3
2018-Feb-10 13:59N 34°25' E 134°12'7 9.3
2018-Feb-10 13:16N 34°25' E 134°20'310.2
2018-Feb-10 12:58N 34°26' E 134°24'510.4
2018-Feb-10 12:29N 34°27' E 134°30'510.6
2018-Feb-10 12:01N 34°29' E 134°35'510.4
2018-Feb-10 11:31N 34°31' E 134°41'510.8
2018-Feb-10 11:00N 34°33' E 134°47'510.8
2018-Feb-10 10:30N 34°35' E 134°53'510.9
2018-Feb-10 10:01N 34°38' E 134°59'611.1
2018-Feb-10 09:30N 34°36' E 135°06'611.6
2018-Feb-10 09:00N 34°37' E 135°13'4 7.5
2018-Feb-10 08:30N 34°40' E 135°15'2 3.6
2018-Feb-10 08:00N 34°42' E 135°14'0 0.0
2018-Feb-10 07:30N 34°42' E 135°14'0 0.0
2018-Feb-10 07:00N 34°42' E 135°14'0 0.0
2018-Feb-10 06:30N 34°42' E 135°14'0 0.0
2018-Feb-10 06:00N 34°42' E 135°14'0 0.0
2018-Feb-10 05:30N 34°42' E 135°14'0 0.0
2018-Feb-10 05:00N 34°42' E 135°14'0 0.0
2018-Feb-10 04:30N 34°42' E 135°14'0 0.0
2018-Feb-10 04:00N 34°42' E 135°14'0 0.0
2018-Feb-10 03:30N 34°42' E 135°14'0 0.0
2018-Feb-10 03:00N 34°42' E 135°14'4 8.0
2018-Feb-10 02:31N 34°38' E 135°16'510.5
2018-Feb-10 02:00N 34°36' E 135°10'510.4
2018-Feb-10 01:30N 34°35' E 135°04'611.2
2018-Feb-10 01:00N 34°36' E 134°57'611.4
2018-Feb-10 00:30N 34°34' E 134°50'511.2
2018-Feb-10 00:00N 34°32' E 134°44'611.5
2018-Feb-09 23:30N 34°29' E 134°38'611.5
2018-Feb-09 23:00N 34°27' E 134°32'  

Dump ship's entire track history